createdAt,value
2019-02-28T00:01:47.675Z,47.85
2019-02-28T00:04:17.669Z,45.63
2019-02-28T00:06:47.159Z,55.25
2019-02-28T00:09:16.543Z,41.68
2019-02-28T00:11:45.887Z,46.83
2019-02-28T00:14:15.102Z,48.33
2019-02-28T00:16:44.187Z,50.08
2019-02-28T00:19:13.628Z,53.13
2019-02-28T00:21:42.769Z,53.42
2019-02-28T00:24:11.923Z,56.88
2019-02-28T00:26:46.523Z,50.10
2019-02-28T00:29:11.951Z,49.25
2019-02-28T00:31:41.099Z,52.80
2019-02-28T00:34:10.740Z,55.35
2019-02-28T00:36:39.973Z,51.98
2019-02-28T00:39:09.322Z,46.60
2019-02-28T00:41:42.900Z,50.23
2019-02-28T00:44:09.279Z,51.48
2019-02-28T00:46:44.089Z,54.05
2019-02-28T00:49:09.313Z,56.53
2019-02-28T00:51:38.431Z,56.37
2019-02-28T00:54:08.544Z,52.38
2019-02-28T00:56:38.856Z,60.12
2019-02-28T00:59:08.329Z,58.70
2019-02-28T01:01:37.349Z,63.05
2019-02-28T01:04:06.625Z,59.35
2019-02-28T01:06:35.928Z,54.35
2019-02-28T01:09:06.863Z,65.00
2019-02-28T01:11:36.312Z,65.67
2019-02-28T01:14:05.536Z,66.97
2019-02-28T01:16:34.767Z,61.90
2019-02-28T01:19:08.663Z,60.58
2019-02-28T01:21:35.132Z,66.82
2019-02-28T01:24:07.759Z,66.42
2019-02-28T01:26:37.138Z,64.40
2019-02-28T01:29:06.507Z,65.57
2019-02-28T01:31:35.718Z,65.15
2019-02-28T01:34:04.982Z,73.47
2019-02-28T01:36:34.157Z,67.17
2019-02-28T01:39:03.497Z,67.62
2019-02-28T01:41:32.539Z,71.53
2019-02-28T01:44:02.739Z,67.42
2019-02-28T01:46:31.968Z,73.02
2019-02-28T01:49:01.095Z,71.97
2019-02-28T01:51:35.752Z,74.60
2019-02-28T01:54:01.348Z,65.20
2019-02-28T01:56:30.415Z,73.30
2019-02-28T01:58:59.634Z,72.72
2019-02-28T02:01:30.978Z,66.65
2019-02-28T02:03:59.470Z,63.00
2019-02-28T02:06:28.515Z,69.40
2019-02-28T02:08:57.686Z,73.75
2019-02-28T02:11:27.357Z,79.17
2019-02-28T02:13:56.498Z,76.92
2019-02-28T02:16:27.693Z,71.92
2019-02-28T02:18:56.528Z,73.45
2019-02-28T02:21:26.276Z,71.55
2019-02-28T02:23:55.215Z,79.70
2019-02-28T02:26:24.354Z,81.90
2019-02-28T02:28:53.250Z,84.28
2019-02-28T02:31:27.594Z,75.40
2019-02-28T02:33:53.026Z,77.58
2019-02-28T02:36:21.993Z,74.90
2019-02-28T02:38:51.052Z,82.97
2019-02-28T02:41:20.081Z,77.05
2019-02-28T02:43:49.130Z,73.70
2019-02-28T02:46:21.394Z,76.57
2019-02-28T02:48:50.657Z,80.00
2019-02-28T02:51:19.753Z,81.08
2019-02-28T02:53:48.790Z,77.50
2019-02-28T02:56:18.092Z,88.35
2019-02-28T02:58:47.521Z,78.80
2019-02-28T03:01:17.416Z,77.55
2019-02-28T03:03:53.613Z,80.72
2019-02-28T03:06:23.842Z,83.70
2019-02-28T03:09:01.543Z,74.80
2019-02-28T03:11:32.829Z,87.70
2019-02-28T03:14:05.999Z,79.10
2019-02-28T03:16:51.474Z,83.45
2019-02-28T03:19:40.303Z,81.92
2019-02-28T03:22:10.349Z,84.77
2019-02-28T03:24:39.857Z,80.47
2019-02-28T03:27:18.628Z,84.03
2019-02-28T03:29:44.812Z,83.90
2019-02-28T03:32:33.965Z,79.58
2019-02-28T03:35:20.184Z,88.78
2019-02-28T03:37:49.363Z,96.82
2019-02-28T03:40:18.675Z,95.35
2019-02-28T03:42:47.853Z,93.55
2019-02-28T03:45:17.096Z,89.58
2019-02-28T03:47:46.236Z,96.50
2019-02-28T03:50:15.432Z,89.10
2019-02-28T03:52:44.949Z,95.03
2019-02-28T03:55:14.409Z,84.00
2019-02-28T03:57:43.739Z,89.40
2019-02-28T04:00:15.227Z,85.83
2019-02-28T04:02:44.783Z,90.10
2019-02-28T04:05:14.043Z,94.83
2019-02-28T04:07:43.173Z,103.17
2019-02-28T04:10:16.821Z,99.85
2019-02-28T04:12:45.904Z,109.25
2019-02-28T04:15:14.533Z,100.02
2019-02-28T04:17:43.579Z,99.67
2019-02-28T04:20:12.749Z,108.83
2019-02-28T04:22:42.170Z,97.02
2019-02-28T04:25:11.364Z,95.97
2019-02-28T04:27:41.815Z,93.52
2019-02-28T04:30:11.301Z,103.87
2019-02-28T04:32:40.431Z,106.47
2019-02-28T04:35:09.523Z,98.27
2019-02-28T04:37:44.922Z,97.08
2019-02-28T04:40:09.572Z,112.00
2019-02-28T04:42:38.706Z,106.25
2019-02-28T04:45:09.013Z,103.95
2019-02-28T04:47:40.547Z,107.87
2019-02-28T04:50:09.800Z,99.83
2019-02-28T04:52:38.899Z,100.72
2019-02-28T04:55:08.082Z,95.70
2019-02-28T04:57:37.239Z,102.72
2019-02-28T05:00:06.977Z,106.92
2019-02-28T05:02:36.282Z,113.20
2019-02-28T05:05:05.575Z,112.62
2019-02-28T05:07:34.637Z,105.17
2019-02-28T05:10:03.708Z,113.40
2019-02-28T05:12:32.832Z,117.03
2019-02-28T05:15:02.743Z,106.07
2019-02-28T05:17:31.842Z,114.42
2019-02-28T05:20:00.792Z,108.63
2019-02-28T05:22:29.842Z,112.72
2019-02-28T05:24:58.892Z,115.55
2019-02-28T05:27:27.873Z,100.90
2019-02-28T05:29:56.887Z,108.72
2019-02-28T05:32:25.940Z,108.70
2019-02-28T05:34:54.933Z,108.75
2019-02-28T05:37:24.002Z,113.47
2019-02-28T05:39:53.068Z,104.40
2019-02-28T05:42:23.358Z,111.55
2019-02-28T05:44:52.611Z,118.25
2019-02-28T05:47:21.553Z,115.77
2019-02-28T05:49:50.453Z,115.47
2019-02-28T05:52:19.418Z,109.17
2019-02-28T05:54:50.283Z,118.97
2019-02-28T05:57:19.137Z,102.92
2019-02-28T05:59:48.420Z,122.40
2019-02-28T06:02:19.007Z,122.20
2019-02-28T06:04:52.951Z,130.75
2019-02-28T06:07:22.187Z,117.93
2019-02-28T06:09:51.290Z,114.08
2019-02-28T06:12:20.376Z,123.67
2019-02-28T06:14:49.309Z,127.00
2019-02-28T06:17:20.791Z,127.80
2019-02-28T06:19:49.343Z,122.65
2019-02-28T06:22:19.353Z,114.05
2019-02-28T06:24:48.326Z,127.35
2019-02-28T06:27:17.375Z,142.15
2019-02-28T06:29:46.369Z,135.28
2019-02-28T06:32:15.460Z,129.93
2019-02-28T06:34:44.458Z,138.65
2019-02-28T06:37:13.551Z,131.52
2019-02-28T06:39:42.988Z,135.68
2019-02-28T06:42:12.596Z,125.75
2019-02-28T06:44:41.569Z,132.95
2019-02-28T06:47:11.343Z,139.88
2019-02-28T06:49:42.091Z,141.53
2019-02-28T06:52:11.393Z,126.45
2019-02-28T06:54:41.189Z,141.07
2019-02-28T06:57:14.957Z,130.63
2019-02-28T06:59:43.899Z,138.75
2019-02-28T07:02:12.810Z,137.10
2019-02-28T07:04:49.513Z,140.85
2019-02-28T07:07:18.805Z,145.72
2019-02-28T07:09:52.184Z,150.27
2019-02-28T07:12:29.510Z,139.35
2019-02-28T07:20:27.770Z,155.97
2019-02-28T07:21:25.709Z,146.13
2019-02-28T07:22:57.797Z,139.95
2019-02-28T07:25:38.821Z,138.15
2019-02-28T07:28:08.152Z,148.57
2019-02-28T07:30:37.168Z,146.95
2019-02-28T07:33:10.567Z,161.10
2019-02-28T07:35:37.188Z,155.07
2019-02-28T07:38:06.257Z,157.50
2019-02-28T07:40:35.654Z,155.18
2019-02-28T07:43:04.723Z,143.95
2019-02-28T07:45:34.213Z,174.00
2019-02-28T07:48:03.256Z,166.07
2019-02-28T07:50:32.301Z,163.40
2019-02-28T07:53:01.397Z,158.20
2019-02-28T07:55:31.048Z,163.80
2019-02-28T07:58:00.191Z,155.72
2019-02-28T08:00:29.205Z,156.60
2019-02-28T08:02:58.276Z,156.87
2019-02-28T08:05:30.902Z,154.55
2019-02-28T08:07:58.025Z,148.95
2019-02-28T08:10:27.145Z,141.57
2019-02-28T08:12:56.511Z,152.20
2019-02-28T08:15:25.763Z,160.57
2019-02-28T08:17:56.542Z,160.75
2019-02-28T08:20:25.652Z,165.52
2019-02-28T08:22:56.775Z,145.72
2019-02-28T08:25:25.394Z,152.90
2019-02-28T08:27:59.258Z,137.32
2019-02-28T08:30:25.274Z,144.95
2019-02-28T08:32:54.545Z,144.45
2019-02-28T08:35:23.664Z,145.90
2019-02-28T08:37:56.959Z,139.05
2019-02-28T08:40:26.678Z,128.65
2019-02-28T08:42:55.417Z,141.10
2019-02-28T08:45:24.571Z,133.10
2019-02-28T08:47:56.790Z,144.40
2019-02-28T08:50:24.490Z,131.05
2019-02-28T08:52:53.707Z,144.07
2019-02-28T08:55:28.857Z,132.87
2019-02-28T08:57:55.905Z,126.55
2019-02-28T09:00:31.335Z,130.70
2019-02-28T09:02:55.402Z,123.72
2019-02-28T09:05:26.663Z,120.85
2019-02-28T09:07:55.159Z,121.42
2019-02-28T09:10:24.334Z,132.67
2019-02-28T09:12:53.601Z,117.67
2019-02-28T09:15:22.666Z,109.57
2019-02-28T09:17:51.763Z,131.63
2019-02-28T09:20:20.918Z,107.37
2019-02-28T09:22:49.964Z,103.15
2019-02-28T09:25:22.077Z,104.40
2019-02-28T09:27:49.917Z,101.82
2019-02-28T09:30:26.470Z,109.85
2019-02-28T09:32:55.537Z,96.60
2019-02-28T09:35:24.705Z,100.80
2019-02-28T09:37:53.783Z,101.25
2019-02-28T09:40:25.759Z,92.45
2019-02-28T09:42:53.659Z,93.85
2019-02-28T09:45:22.939Z,84.95
2019-02-28T09:47:51.866Z,65.80
2019-02-28T09:50:22.586Z,59.33
2019-02-28T09:52:51.984Z,66.10
2019-02-28T09:55:21.027Z,74.45
2019-02-28T09:57:53.713Z,64.62
2019-02-28T10:00:21.120Z,64.45
2019-02-28T10:02:49.993Z,57.62
2019-02-28T10:05:18.979Z,60.52
2019-02-28T10:07:48.043Z,56.25
2019-02-28T10:10:20.981Z,61.88
2019-02-28T10:12:49.385Z,61.00
2019-02-28T10:15:19.398Z,62.62
2019-02-28T10:17:48.614Z,70.72
2019-02-28T10:20:19.820Z,57.58
2019-02-28T10:22:49.191Z,52.08
2019-02-28T10:25:18.239Z,62.30
2019-02-28T10:27:47.339Z,57.67
2019-02-28T10:30:18.128Z,52.08
2019-02-28T10:32:47.266Z,56.10
2019-02-28T10:35:16.350Z,53.38
2019-02-28T10:37:45.425Z,61.65
2019-02-28T10:40:17.885Z,70.95
2019-02-28T10:42:49.439Z,45.73
2019-02-28T10:45:18.467Z,57.30
2019-02-28T10:47:47.469Z,53.15
2019-02-28T10:50:18.329Z,49.63
2019-02-28T10:52:47.451Z,53.48
2019-02-28T10:55:19.483Z,55.48
2019-02-28T10:57:47.528Z,58.78
2019-02-28T11:00:23.319Z,49.85
2019-02-28T11:02:53.743Z,49.80
2019-02-28T11:05:27.422Z,42.00
2019-02-28T11:07:56.524Z,45.52
2019-02-28T11:10:35.053Z,47.10
2019-02-28T11:13:00.380Z,41.08
2019-02-28T11:15:29.633Z,38.17
2019-02-28T11:17:58.539Z,46.70
2019-02-28T11:20:27.428Z,49.60
2019-02-28T11:22:56.355Z,55.28
2019-02-28T11:25:26.885Z,53.63
2019-02-28T11:27:55.850Z,59.73
2019-02-28T11:30:25.355Z,47.65
2019-02-28T11:32:54.341Z,55.83
2019-02-28T11:35:23.951Z,42.10
2019-02-28T11:37:53.025Z,46.60
2019-02-28T11:40:23.095Z,43.08
2019-02-28T11:42:52.092Z,49.58
2019-02-28T11:45:25.358Z,42.05
2019-02-28T11:47:54.305Z,49.95
2019-02-28T11:50:23.412Z,46.33
2019-02-28T11:52:52.368Z,55.05
2019-02-28T11:55:21.317Z,41.45
2019-02-28T11:57:50.520Z,48.28
2019-02-28T12:00:21.699Z,43.23
2019-02-28T12:02:53.362Z,43.20
2019-02-28T12:05:21.365Z,45.85
2019-02-28T12:07:50.194Z,45.55
2019-02-28T12:10:19.582Z,42.38
2019-02-28T12:12:48.536Z,39.38
2019-02-28T12:15:18.582Z,43.55
2019-02-28T12:17:47.552Z,45.73
2019-02-28T12:20:16.610Z,46.02
2019-02-28T12:22:49.360Z,44.75
2019-02-28T12:25:17.740Z,30.88
2019-02-28T12:27:46.696Z,37.65
2019-02-28T12:30:26.656Z,46.83
2019-02-28T12:32:56.911Z,38.13
2019-02-28T12:35:25.833Z,33.92
2019-02-28T12:37:55.014Z,33.18
2019-02-28T12:40:25.956Z,37.40
2019-02-28T12:42:54.879Z,34.55
2019-02-28T12:45:29.166Z,33.02
2019-02-28T12:47:58.021Z,35.30
2019-02-28T12:50:29.423Z,32.63
2019-02-28T12:53:00.716Z,38.35
2019-02-28T12:55:29.888Z,34.63
2019-02-28T12:57:59.021Z,34.90
2019-02-28T13:00:33.431Z,38.85
2019-02-28T13:03:02.396Z,33.78
2019-02-28T13:05:31.538Z,42.27
2019-02-28T13:08:00.584Z,35.28
2019-02-28T13:10:31.097Z,34.80
2019-02-28T13:13:06.327Z,35.17
2019-02-28T13:15:32.348Z,39.13
2019-02-28T13:18:07.107Z,41.75
2019-02-28T13:20:33.712Z,37.05
2019-02-28T13:23:02.566Z,45.12
2019-02-28T13:25:31.664Z,37.50
2019-02-28T13:28:00.738Z,35.68
2019-02-28T13:30:29.861Z,32.55
2019-02-28T13:32:59.123Z,39.98
2019-02-28T13:35:29.956Z,33.78
2019-02-28T13:37:59.079Z,31.95
2019-02-28T13:40:28.075Z,33.73
2019-02-28T13:42:57.019Z,31.52
2019-02-28T13:45:26.484Z,33.48
2019-02-28T13:47:55.546Z,35.83
2019-02-28T13:50:26.794Z,28.70
2019-02-28T13:52:55.984Z,36.93
2019-02-28T13:55:25.140Z,34.60
2019-02-28T13:57:54.055Z,30.72
2019-02-28T14:00:24.675Z,38.98
2019-02-28T14:02:55.582Z,34.48
2019-02-28T14:05:24.756Z,41.20
2019-02-28T14:07:53.708Z,33.02
2019-02-28T14:10:23.324Z,29.80
2019-02-28T14:12:57.049Z,31.60
2019-02-28T14:15:32.312Z,26.52
2019-02-28T14:18:01.465Z,35.52
2019-02-28T14:20:30.439Z,24.37
2019-02-28T14:22:59.331Z,30.05
2019-02-28T14:25:28.393Z,31.85
2019-02-28T14:28:00.293Z,23.50
2019-02-28T14:30:28.454Z,39.08
2019-02-28T14:32:57.506Z,31.17
2019-02-28T14:35:26.657Z,35.28
2019-02-28T14:37:56.847Z,35.52
2019-02-28T14:40:26.061Z,32.40
2019-02-28T14:42:54.906Z,33.80
2019-02-28T14:45:23.998Z,38.35
2019-02-28T14:47:57.013Z,36.63
2019-02-28T14:50:23.686Z,31.05
2019-02-28T14:52:53.503Z,28.70
2019-02-28T14:55:22.371Z,28.12
2019-02-28T14:57:51.472Z,33.98
2019-02-28T15:00:23.551Z,34.08
2019-02-28T15:02:52.667Z,31.80
2019-02-28T15:05:21.745Z,38.92
2019-02-28T15:07:50.896Z,29.90
2019-02-28T15:10:20.288Z,33.90
2019-02-28T15:12:49.456Z,34.65
2019-02-28T15:15:19.093Z,37.33
2019-02-28T15:17:48.196Z,40.35
2019-02-28T15:20:17.487Z,31.42
2019-02-28T15:22:46.470Z,25.88
2019-02-28T15:25:18.539Z,38.80
2019-02-28T15:27:47.215Z,33.78
2019-02-28T15:30:21.303Z,29.50
2019-02-28T15:32:50.764Z,37.67
2019-02-28T15:35:21.260Z,34.03
2019-02-28T15:37:50.292Z,35.30
2019-02-28T15:40:24.466Z,31.12
2019-02-28T15:42:52.153Z,38.67
2019-02-28T15:45:21.207Z,29.07
2019-02-28T15:47:52.010Z,32.67
2019-02-28T15:50:21.275Z,33.02
2019-02-28T15:52:50.416Z,34.18
2019-02-28T15:55:19.452Z,34.78
2019-02-28T15:57:48.436Z,40.70
2019-02-28T16:00:22.150Z,32.45
2019-02-28T16:02:51.252Z,39.08
2019-02-28T16:05:20.822Z,39.35
2019-02-28T16:07:50.594Z,38.63
2019-02-28T16:10:21.431Z,36.55
2019-02-28T16:12:51.184Z,34.50
2019-02-28T16:15:20.397Z,31.68
2019-02-28T16:17:49.838Z,29.63
2019-02-28T16:20:18.803Z,30.08
2019-02-28T16:22:52.123Z,37.58
2019-02-28T16:25:20.667Z,34.27
2019-02-28T16:27:49.620Z,27.85
2019-02-28T16:30:18.944Z,28.87
2019-02-28T16:32:49.167Z,36.70
2019-02-28T16:35:18.649Z,37.28
2019-02-28T16:37:47.688Z,34.38
2019-02-28T16:40:20.776Z,32.40
2019-02-28T16:42:48.258Z,35.65
2019-02-28T16:45:24.417Z,40.95
2019-02-28T16:47:55.633Z,38.85
2019-02-28T16:50:24.220Z,33.80
2019-02-28T16:52:53.238Z,28.90
2019-02-28T16:55:22.234Z,30.65
2019-02-28T16:57:51.135Z,35.43
2019-02-28T17:00:20.355Z,40.03
2019-02-28T17:02:49.349Z,31.37
2019-02-28T17:05:18.217Z,30.72
2019-02-28T17:07:47.148Z,33.83
2019-02-28T17:10:18.142Z,36.08
2019-02-28T17:12:59.513Z,31.40
2019-02-28T17:15:35.573Z,29.52
2019-02-28T17:18:08.860Z,29.35
2019-02-28T17:20:40.743Z,27.52
2019-02-28T17:23:08.599Z,30.90
2019-02-28T17:25:37.592Z,30.20
2019-02-28T17:28:23.999Z,30.27
2019-02-28T17:31:11.561Z,25.37
2019-02-28T17:33:43.391Z,26.97
2019-02-28T17:36:12.544Z,27.55
2019-02-28T17:38:41.782Z,26.77
2019-02-28T17:41:11.215Z,30.52
2019-02-28T17:43:40.195Z,29.82
2019-02-28T17:46:10.478Z,26.37
2019-02-28T17:49:06.854Z,27.80
2019-02-28T17:51:39.977Z,23.20
2019-02-28T17:54:49.200Z,30.62
2019-02-28T17:58:01.968Z,26.20
2019-02-28T18:01:11.066Z,33.53
2019-02-28T18:04:24.220Z,32.88
2019-02-28T18:07:35.001Z,21.55
2019-02-28T18:10:42.235Z,22.62
2019-02-28T18:13:32.461Z,26.23
2019-02-28T18:16:28.312Z,24.98
2019-02-28T18:19:21.916Z,22.82
2019-02-28T18:22:31.452Z,24.72
2019-02-28T18:25:37.395Z,31.55
2019-02-28T18:28:38.787Z,27.65
2019-02-28T18:31:10.019Z,22.32
2019-02-28T18:33:59.399Z,26.97
2019-02-28T18:36:30.196Z,23.20
2019-02-28T18:38:59.225Z,28.45
2019-02-28T18:41:28.172Z,32.78
2019-02-28T18:44:00.066Z,21.85
2019-02-28T18:46:29.783Z,26.85
2019-02-28T18:48:59.718Z,31.23
2019-02-28T18:51:33.423Z,30.72
2019-02-28T18:54:02.333Z,24.63
2019-02-28T18:56:31.359Z,22.58
2019-02-28T18:59:00.360Z,29.48
2019-02-28T19:01:29.538Z,28.05
2019-02-28T19:03:58.558Z,39.58
2019-02-28T19:06:27.531Z,31.45
2019-02-28T19:08:56.515Z,30.82
2019-02-28T19:11:25.457Z,26.33
2019-02-28T19:13:58.305Z,32.45
2019-02-28T19:16:27.224Z,21.65
2019-02-28T19:18:56.225Z,29.75
2019-02-28T19:21:25.153Z,23.35
2019-02-28T19:23:54.216Z,28.62
2019-02-28T19:26:23.309Z,34.30
2019-02-28T19:28:52.245Z,28.07
2019-02-28T19:31:21.123Z,23.42
2019-02-28T19:33:50.054Z,29.80
2019-02-28T19:36:19.667Z,30.40
2019-02-28T19:38:48.679Z,32.78
2019-02-28T19:41:17.776Z,26.73
2019-02-28T19:43:47.357Z,33.35
2019-02-28T19:46:21.271Z,32.33
2019-02-28T19:48:50.685Z,33.05
2019-02-28T19:51:20.514Z,32.48
2019-02-28T19:53:49.806Z,29.75
2019-02-28T19:56:19.024Z,27.52
2019-02-28T19:58:48.245Z,29.35
2019-02-28T20:01:19.346Z,31.30
2019-02-28T20:03:48.851Z,34.83
2019-02-28T20:06:18.565Z,33.30
2019-02-28T20:08:48.133Z,34.40
2019-02-28T20:11:18.927Z,31.70
2019-02-28T20:13:48.912Z,33.13
2019-02-28T20:16:20.012Z,31.15
2019-02-28T20:18:50.439Z,30.20
2019-02-28T20:21:19.910Z,35.33
2019-02-28T20:23:48.990Z,29.92
2019-02-28T20:26:19.398Z,25.72
2019-02-28T20:28:48.608Z,25.77
2019-02-28T20:31:17.898Z,32.38
2019-02-28T20:33:47.219Z,28.90
2019-02-28T20:36:16.766Z,30.40
2019-02-28T20:38:46.109Z,32.00
2019-02-28T20:42:12.230Z,28.10
2019-02-28T20:44:44.452Z,31.02
2019-02-28T20:47:14.206Z,33.85
2019-02-28T20:49:45.959Z,30.20
2019-02-28T20:52:18.584Z,31.60
2019-02-28T20:54:48.015Z,32.28
2019-02-28T20:57:17.177Z,32.42
2019-02-28T20:59:46.425Z,26.23
2019-02-28T21:02:18.770Z,24.45
2019-02-28T21:04:48.068Z,29.05
2019-02-28T21:07:17.281Z,29.05
2019-02-28T21:09:46.521Z,28.25
2019-02-28T21:12:16.025Z,24.40
2019-02-28T21:14:45.492Z,34.20
2019-02-28T21:17:14.936Z,45.73
2019-02-28T21:19:44.385Z,21.93
2019-02-28T21:22:14.025Z,27.52
2019-02-28T21:24:43.458Z,35.90
2019-02-28T21:27:12.951Z,23.83
2019-02-28T21:29:45.743Z,22.82
2019-02-28T21:32:14.742Z,26.65
2019-02-28T21:34:43.839Z,30.43
2019-02-28T21:37:12.920Z,24.77
2019-02-28T21:39:41.992Z,23.95
2019-02-28T21:42:11.052Z,20.02
2019-02-28T21:44:40.121Z,24.75
2019-02-28T21:47:08.954Z,25.85
2019-02-28T21:49:37.945Z,21.95
2019-02-28T21:52:06.958Z,18.75
2019-02-28T21:54:36.014Z,23.95
2019-02-28T21:57:05.020Z,19.65
2019-02-28T21:59:33.973Z,20.55
2019-02-28T22:02:03.127Z,26.00
2019-02-28T22:04:32.052Z,17.12
2019-02-28T22:07:01.290Z,24.75
2019-02-28T22:09:30.420Z,26.75
2019-02-28T22:11:59.644Z,20.20
2019-02-28T22:14:28.745Z,22.42
2019-02-28T22:16:57.843Z,28.65
2019-02-28T22:19:27.006Z,31.97
2019-02-28T22:21:56.065Z,27.35
2019-02-28T22:24:25.035Z,27.73
2019-02-28T22:26:54.141Z,30.12
2019-02-28T22:29:23.214Z,22.98
2019-02-28T22:31:58.851Z,19.27
2019-02-28T22:34:38.617Z,28.40
2019-02-28T22:37:07.626Z,19.75
2019-02-28T22:39:36.590Z,24.67
2019-02-28T22:42:05.629Z,26.12
2019-02-28T22:44:34.608Z,24.85
2019-02-28T22:47:03.697Z,25.10
2019-02-28T22:49:33.705Z,21.50
2019-02-28T22:52:02.718Z,24.87
2019-02-28T22:54:35.415Z,19.90
2019-02-28T22:57:04.781Z,27.75
2019-02-28T22:59:33.904Z,32.83
2019-02-28T23:02:03.152Z,31.33
2019-02-28T23:04:32.177Z,22.02
2019-02-28T23:07:01.333Z,26.82
2019-02-28T23:09:30.529Z,26.68
2019-02-28T23:11:59.637Z,30.62
2019-02-28T23:14:28.819Z,28.75
2019-02-28T23:16:57.858Z,23.55
2019-02-28T23:19:27.003Z,31.10
2019-02-28T23:21:55.955Z,23.57
2019-02-28T23:24:25.024Z,26.20
2019-02-28T23:27:28.425Z,28.35
2019-02-28T23:30:22.831Z,23.83
2019-02-28T23:33:01.053Z,32.38
2019-02-28T23:35:32.992Z,29.20
2019-02-28T23:38:02.075Z,27.65
2019-02-28T23:40:31.105Z,30.60
2019-02-28T23:43:00.235Z,33.70
2019-02-28T23:45:29.255Z,27.73
2019-02-28T23:47:58.164Z,27.70
2019-02-28T23:50:27.115Z,28.32
2019-02-28T23:52:56.132Z,40.35
2019-02-28T23:55:25.043Z,34.58
2019-02-28T23:57:54.042Z,36.68
